sensor_id;sensor_type;location;lat;lon;timestamp;pressure;altitude;pressure_sealevel;temperature
60615;BMP280;46444;45.590;5.284;2023-04-03T00:01:52;99169.78;;;9.57
60615;BMP280;46444;45.590;5.284;2023-04-03T00:07:49;99156.69;;;9.74
60615;BMP280;46444;45.590;5.284;2023-04-03T00:10:20;99164.69;;;9.56
60615;BMP280;46444;45.590;5.284;2023-04-03T00:12:46;99165.06;;;9.59
60615;BMP280;46444;45.590;5.284;2023-04-03T00:15:12;99152.25;;;9.68
60615;BMP280;46444;45.590;5.284;2023-04-03T00:17:37;99159.25;;;9.44
60615;BMP280;46444;45.590;5.284;2023-04-03T00:20:04;99150.31;;;9.57
60615;BMP280;46444;45.590;5.284;2023-04-03T00:22:37;99159.63;;;9.66
60615;BMP280;46444;45.590;5.284;2023-04-03T00:25:07;99149.84;;;9.60
60615;BMP280;46444;45.590;5.284;2023-04-03T00:27:35;99158.63;;;9.67
60615;BMP280;46444;45.590;5.284;2023-04-03T00:30:01;99154.91;;;9.50
60615;BMP280;46444;45.590;5.284;2023-04-03T00:32:28;99150.47;;;9.62
60615;BMP280;46444;45.590;5.284;2023-04-03T00:34:55;99149.13;;;9.71
60615;BMP280;46444;45.590;5.284;2023-04-03T00:37:24;99153.41;;;9.90
60615;BMP280;46444;45.590;5.284;2023-04-03T00:39:52;99142.00;;;9.83
60615;BMP280;46444;45.590;5.284;2023-04-03T00:42:18;99144.09;;;9.81
60615;BMP280;46444;45.590;5.284;2023-04-03T00:48:28;99135.59;;;9.84
60615;BMP280;46444;45.590;5.284;2023-04-03T00:50:57;99142.34;;;9.86
60615;BMP280;46444;45.590;5.284;2023-04-03T00:54:18;99139.41;;;9.76
60615;BMP280;46444;45.590;5.284;2023-04-03T00:56:48;99139.63;;;9.75
60615;BMP280;46444;45.590;5.284;2023-04-03T00:59:17;99127.75;;;9.89
60615;BMP280;46444;45.590;5.284;2023-04-03T01:02:17;99134.13;;;9.88
60615;BMP280;46444;45.590;5.284;2023-04-03T01:05:30;99125.09;;;9.71
60615;BMP280;46444;45.590;5.284;2023-04-03T01:08:20;99129.63;;;9.70
60615;BMP280;46444;45.590;5.284;2023-04-03T01:10:46;99126.72;;;9.72
60615;BMP280;46444;45.590;5.284;2023-04-03T01:13:51;99123.47;;;9.70
60615;BMP280;46444;45.590;5.284;2023-04-03T01:16:20;99118.81;;;9.65
60615;BMP280;46444;45.590;5.284;2023-04-03T01:18:48;99113.47;;;9.65
60615;BMP280;46444;45.590;5.284;2023-04-03T01:24:52;99113.31;;;9.78
60615;BMP280;46444;45.590;5.284;2023-04-03T01:27:10;99110.28;;;9.57
60615;BMP280;46444;45.590;5.284;2023-04-03T01:29:46;99106.13;;;9.79
60615;BMP280;46444;45.590;5.284;2023-04-03T01:35:51;99112.63;;;9.83
60615;BMP280;46444;45.590;5.284;2023-04-03T01:38:31;99109.59;;;9.61
60615;BMP280;46444;45.590;5.284;2023-04-03T01:41:19;99098.34;;;9.77
60615;BMP280;46444;45.590;5.284;2023-04-03T01:44:14;99110.19;;;9.81
60615;BMP280;46444;45.590;5.284;2023-04-03T01:46:42;99103.22;;;9.80
60615;BMP280;46444;45.590;5.284;2023-04-03T01:49:40;99113.47;;;9.83
60615;BMP280;46444;45.590;5.284;2023-04-03T01:52:58;99107.81;;;9.73
60615;BMP280;46444;45.590;5.284;2023-04-03T01:55:31;99117.47;;;9.74
60615;BMP280;46444;45.590;5.284;2023-04-03T01:58:05;99106.72;;;9.81
60615;BMP280;46444;45.590;5.284;2023-04-03T02:00:35;99106.13;;;9.97
60615;BMP280;46444;45.590;5.284;2023-04-03T02:03:11;99108.50;;;9.87
60615;BMP280;46444;45.590;5.284;2023-04-03T02:06:07;99097.97;;;9.92
60615;BMP280;46444;45.590;5.284;2023-04-03T02:08:36;99105.09;;;9.62
60615;BMP280;46444;45.590;5.284;2023-04-03T02:11:02;99106.50;;;9.46
60615;BMP280;46444;45.590;5.284;2023-04-03T02:13:49;99105.53;;;9.59
60615;BMP280;46444;45.590;5.284;2023-04-03T02:16:42;99093.66;;;9.55
60615;BMP280;46444;45.590;5.284;2023-04-03T02:19:41;99100.78;;;9.43
60615;BMP280;46444;45.590;5.284;2023-04-03T02:22:10;99104.22;;;9.68
60615;BMP280;46444;45.590;5.284;2023-04-03T02:24:45;99101.44;;;9.74
60615;BMP280;46444;45.590;5.284;2023-04-03T02:27:15;99093.91;;;9.71
60615;BMP280;46444;45.590;5.284;2023-04-03T02:29:43;99097.09;;;9.80
60615;BMP280;46444;45.590;5.284;2023-04-03T02:32:09;99093.44;;;9.74
60615;BMP280;46444;45.590;5.284;2023-04-03T02:34:41;99090.69;;;9.81
60615;BMP280;46444;45.590;5.284;2023-04-03T02:37:10;99085.38;;;9.81
60615;BMP280;46444;45.590;5.284;2023-04-03T02:39:36;99088.25;;;9.61
60615;BMP280;46444;45.590;5.284;2023-04-03T02:42:02;99084.63;;;9.74
60615;BMP280;46444;45.590;5.284;2023-04-03T02:44:33;99095.38;;;9.49
60615;BMP280;46444;45.590;5.284;2023-04-03T02:47:01;99086.41;;;9.80
60615;BMP280;46444;45.590;5.284;2023-04-03T02:49:27;99093.06;;;9.71
60615;BMP280;46444;45.590;5.284;2023-04-03T02:51:53;99087.16;;;9.51
60615;BMP280;46444;45.590;5.284;2023-04-03T02:54:26;99084.91;;;9.66
60615;BMP280;46444;45.590;5.284;2023-04-03T02:57:25;99077.66;;;9.55
60615;BMP280;46444;45.590;5.284;2023-04-03T03:00:28;99076.78;;;9.61
60615;BMP280;46444;45.590;5.284;2023-04-03T03:02:56;99076.03;;;9.54
60615;BMP280;46444;45.590;5.284;2023-04-03T03:05:26;99070.25;;;9.57
60615;BMP280;46444;45.590;5.284;2023-04-03T03:07:52;99072.03;;;9.63
60615;BMP280;46444;45.590;5.284;2023-04-03T03:10:26;99075.28;;;9.47
60615;BMP280;46444;45.590;5.284;2023-04-03T03:13:16;99070.19;;;9.45
60615;BMP280;46444;45.590;5.284;2023-04-03T03:16:35;99078.47;;;9.73
60615;BMP280;46444;45.590;5.284;2023-04-03T03:19:02;99069.38;;;9.63
60615;BMP280;46444;45.590;5.284;2023-04-03T03:21:27;99071.28;;;9.74
60615;BMP280;46444;45.590;5.284;2023-04-03T03:24:26;99076.38;;;9.75
60615;BMP280;46444;45.590;5.284;2023-04-03T03:27:39;99091.44;;;9.70
60615;BMP280;46444;45.590;5.284;2023-04-03T03:34:36;99082.38;;;9.89
60615;BMP280;46444;45.590;5.284;2023-04-03T03:37:12;99089.50;;;9.95
60615;BMP280;46444;45.590;5.284;2023-04-03T03:40:37;99082.38;;;10.07
60615;BMP280;46444;45.590;5.284;2023-04-03T03:44:22;99083.88;;;9.85
60615;BMP280;46444;45.590;5.284;2023-04-03T03:46:49;99081.25;;;9.67
60615;BMP280;46444;45.590;5.284;2023-04-03T03:49:32;99075.59;;;9.75
60615;BMP280;46444;45.590;5.284;2023-04-03T03:52:01;99063.66;;;9.77
60615;BMP280;46444;45.590;5.284;2023-04-03T03:55:11;99070.25;;;9.75
60615;BMP280;46444;45.590;5.284;2023-04-03T03:58:32;99079.94;;;9.69
60615;BMP280;46444;45.590;5.284;2023-04-03T04:01:43;99080.78;;;9.70
60615;BMP280;46444;45.590;5.284;2023-04-03T04:04:11;99084.13;;;9.65
60615;BMP280;46444;45.590;5.284;2023-04-03T04:06:39;99080.03;;;9.63
60615;BMP280;46444;45.590;5.284;2023-04-03T04:09:36;99076.53;;;9.62
60615;BMP280;46444;45.590;5.284;2023-04-03T04:12:41;99064.78;;;9.52
60615;BMP280;46444;45.590;5.284;2023-04-03T04:15:50;99073.22;;;9.67
60615;BMP280;46444;45.590;5.284;2023-04-03T04:54:08;99052.03;;;9.54
60615;BMP280;46444;45.590;5.284;2023-04-03T05:22:25;99039.28;;;9.56
60615;BMP280;46444;45.590;5.284;2023-04-03T05:24:50;99036.31;;;9.64
60615;BMP280;46444;45.590;5.284;2023-04-03T05:27:15;99048.38;;;9.66
60615;BMP280;46444;45.590;5.284;2023-04-03T05:29:41;99046.56;;;9.67
60615;BMP280;46444;45.590;5.284;2023-04-03T05:32:09;99057.50;;;9.77
60615;BMP280;46444;45.590;5.284;2023-04-03T05:34:34;99043.41;;;9.70
60615;BMP280;46444;45.590;5.284;2023-04-03T05:37:00;99031.56;;;9.48
60615;BMP280;46444;45.590;5.284;2023-04-03T05:39:25;99038.97;;;9.64
60615;BMP280;46444;45.590;5.284;2023-04-03T05:41:50;99032.41;;;9.78
60615;BMP280;46444;45.590;5.284;2023-04-03T05:44:16;99046.22;;;9.75
60615;BMP280;46444;45.590;5.284;2023-04-03T05:46:41;99034.06;;;9.79
60615;BMP280;46444;45.590;5.284;2023-04-03T05:49:06;99038.00;;;9.76
60615;BMP280;46444;45.590;5.284;2023-04-03T05:51:34;99045.41;;;9.74
60615;BMP280;46444;45.590;5.284;2023-04-03T05:54:08;99040.28;;;9.91
60615;BMP280;46444;45.590;5.284;2023-04-03T05:56:34;99035.38;;;9.88
60615;BMP280;46444;45.590;5.284;2023-04-03T05:59:00;99049.66;;;9.93
60615;BMP280;46444;45.590;5.284;2023-04-03T06:01:25;99042.34;;;9.89
60615;BMP280;46444;45.590;5.284;2023-04-03T06:03:52;99046.75;;;9.83
60615;BMP280;46444;45.590;5.284;2023-04-03T06:06:17;99049.47;;;9.77
60615;BMP280;46444;45.590;5.284;2023-04-03T06:08:43;99051.31;;;9.94
60615;BMP280;46444;45.590;5.284;2023-04-03T06:11:08;99050.28;;;9.95
60615;BMP280;46444;45.590;5.284;2023-04-03T06:13:34;99054.06;;;9.88
60615;BMP280;46444;45.590;5.284;2023-04-03T06:16:00;99059.09;;;9.78
60615;BMP280;46444;45.590;5.284;2023-04-03T06:18:26;99054.81;;;9.77
60615;BMP280;46444;45.590;5.284;2023-04-03T06:20:51;99056.44;;;9.78
60615;BMP280;46444;45.590;5.284;2023-04-03T06:23:16;99060.09;;;9.83
60615;BMP280;46444;45.590;5.284;2023-04-03T06:25:42;99058.09;;;9.79
60615;BMP280;46444;45.590;5.284;2023-04-03T06:28:08;99069.94;;;9.83
60615;BMP280;46444;45.590;5.284;2023-04-03T06:30:35;99058.16;;;10.02
60615;BMP280;46444;45.590;5.284;2023-04-03T06:33:01;99061.34;;;9.81
60615;BMP280;46444;45.590;5.284;2023-04-03T06:35:26;99054.25;;;9.75
60615;BMP280;46444;45.590;5.284;2023-04-03T06:37:53;99064.88;;;9.93
60615;BMP280;46444;45.590;5.284;2023-04-03T06:40:22;99056.19;;;9.97
60615;BMP280;46444;45.590;5.284;2023-04-03T06:42:47;99068.34;;;10.11
60615;BMP280;46444;45.590;5.284;2023-04-03T06:45:13;99070.00;;;9.94
60615;BMP280;46444;45.590;5.284;2023-04-03T06:47:38;99075.41;;;10.06
60615;BMP280;46444;45.590;5.284;2023-04-03T06:50:04;99066.56;;;10.05
60615;BMP280;46444;45.590;5.284;2023-04-03T06:52:30;99076.84;;;10.02
60615;BMP280;46444;45.590;5.284;2023-04-03T06:54:56;99081.63;;;10.00
60615;BMP280;46444;45.590;5.284;2023-04-03T06:57:24;99076.13;;;10.13
60615;BMP280;46444;45.590;5.284;2023-04-03T06:59:50;99066.50;;;10.12
60615;BMP280;46444;45.590;5.284;2023-04-03T07:02:15;99071.00;;;9.93
60615;BMP280;46444;45.590;5.284;2023-04-03T07:04:40;99068.13;;;9.95
60615;BMP280;46444;45.590;5.284;2023-04-03T07:07:06;99066.81;;;9.86
60615;BMP280;46444;45.590;5.284;2023-04-03T07:09:31;99075.56;;;9.93
60615;BMP280;46444;45.590;5.284;2023-04-03T07:11:57;99059.75;;;9.91
60615;BMP280;46444;45.590;5.284;2023-04-03T07:14:22;99064.50;;;10.07
60615;BMP280;46444;45.590;5.284;2023-04-03T07:16:48;99060.22;;;10.06
60615;BMP280;46444;45.590;5.284;2023-04-03T07:19:13;99072.56;;;10.01
60615;BMP280;46444;45.590;5.284;2023-04-03T07:21:38;99069.63;;;10.09
60615;BMP280;46444;45.590;5.284;2023-04-03T07:24:04;99071.47;;;9.90
60615;BMP280;46444;45.590;5.284;2023-04-03T07:26:29;99072.75;;;9.88
60615;BMP280;46444;45.590;5.284;2023-04-03T07:28:55;99079.53;;;10.02
60615;BMP280;46444;45.590;5.284;2023-04-03T07:31:21;99073.47;;;9.95
60615;BMP280;46444;45.590;5.284;2023-04-03T07:33:46;99074.28;;;9.95
60615;BMP280;46444;45.590;5.284;2023-04-03T07:36:16;99077.09;;;10.00
60615;BMP280;46444;45.590;5.284;2023-04-03T07:38:42;99078.81;;;9.95
60615;BMP280;46444;45.590;5.284;2023-04-03T07:41:12;99087.44;;;9.97
60615;BMP280;46444;45.590;5.284;2023-04-03T07:43:38;99087.13;;;10.05
60615;BMP280;46444;45.590;5.284;2023-04-03T07:46:04;99078.81;;;10.13
60615;BMP280;46444;45.590;5.284;2023-04-03T07:48:30;99081.47;;;9.95
60615;BMP280;46444;45.590;5.284;2023-04-03T07:50:59;99084.63;;;9.92
60615;BMP280;46444;45.590;5.284;2023-04-03T07:53:25;99080.75;;;10.06
60615;BMP280;46444;45.590;5.284;2023-04-03T07:55:50;99076.06;;;10.19
60615;BMP280;46444;45.590;5.284;2023-04-03T07:58:20;99082.16;;;10.08
60615;BMP280;46444;45.590;5.284;2023-04-03T08:00:46;99082.28;;;10.13
60615;BMP280;46444;45.590;5.284;2023-04-03T08:03:11;99085.25;;;10.05
60615;BMP280;46444;45.590;5.284;2023-04-03T08:05:41;99096.19;;;9.86
60615;BMP280;46444;45.590;5.284;2023-04-03T08:08:07;99090.38;;;10.07
60615;BMP280;46444;45.590;5.284;2023-04-03T08:10:33;99095.72;;;9.89
60615;BMP280;46444;45.590;5.284;2023-04-03T08:13:00;99086.38;;;9.98
60615;BMP280;46444;45.590;5.284;2023-04-03T08:15:25;99093.41;;;10.10
60615;BMP280;46444;45.590;5.284;2023-04-03T08:17:51;99078.81;;;10.13
60615;BMP280;46444;45.590;5.284;2023-04-03T08:20:17;99095.16;;;10.05
60615;BMP280;46444;45.590;5.284;2023-04-03T08:22:42;99089.94;;;10.10
60615;BMP280;46444;45.590;5.284;2023-04-03T08:25:08;99090.59;;;10.05
60615;BMP280;46444;45.590;5.284;2023-04-03T08:27:33;99095.94;;;10.05
60615;BMP280;46444;45.590;5.284;2023-04-03T08:29:59;99090.44;;;10.18
60615;BMP280;46444;45.590;5.284;2023-04-03T08:32:24;99084.41;;;10.23
60615;BMP280;46444;45.590;5.284;2023-04-03T08:34:50;99085.00;;;10.25
60615;BMP280;46444;45.590;5.284;2023-04-03T08:37:16;99090.16;;;10.08
60615;BMP280;46444;45.590;5.284;2023-04-03T08:39:42;99102.53;;;10.03
60615;BMP280;46444;45.590;5.284;2023-04-03T08:45:27;99105.97;;;10.10
60615;BMP280;46444;45.590;5.284;2023-04-03T08:48:04;99097.72;;;10.11
60615;BMP280;46444;45.590;5.284;2023-04-03T08:50:36;99110.25;;;10.11
60615;BMP280;46444;45.590;5.284;2023-04-03T08:53:03;99101.38;;;9.81
60615;BMP280;46444;45.590;5.284;2023-04-03T08:55:34;99107.28;;;10.01
60615;BMP280;46444;45.590;5.284;2023-04-03T08:58:12;99105.13;;;9.91
60615;BMP280;46444;45.590;5.284;2023-04-03T09:01:01;99102.41;;;10.16
60615;BMP280;46444;45.590;5.284;2023-04-03T09:03:31;99105.97;;;10.10
60615;BMP280;46444;45.590;5.284;2023-04-03T09:06:02;99101.94;;;10.19
60615;BMP280;46444;45.590;5.284;2023-04-03T09:08:47;99096.78;;;10.06
60615;BMP280;46444;45.590;5.284;2023-04-03T09:13:54;99097.31;;;10.26
60615;BMP280;46444;45.590;5.284;2023-04-03T09:22:07;99094.81;;;10.13
60615;BMP280;46444;45.590;5.284;2023-04-03T09:24:35;99102.84;;;10.13
60615;BMP280;46444;45.590;5.284;2023-04-03T09:27:04;99099.69;;;10.34
60615;BMP280;46444;45.590;5.284;2023-04-03T09:29:32;99096.72;;;10.24
60615;BMP280;46444;45.590;5.284;2023-04-03T09:32:02;99106.41;;;10.07
60615;BMP280;46444;45.590;5.284;2023-04-03T09:34:32;99089.06;;;9.98
60615;BMP280;46444;45.590;5.284;2023-04-03T09:37:00;99095.03;;;10.11
60615;BMP280;46444;45.590;5.284;2023-04-03T09:39:32;99101.56;;;10.15
60615;BMP280;46444;45.590;5.284;2023-04-03T09:42:18;99094.41;;;10.27
60615;BMP280;46444;45.590;5.284;2023-04-03T09:44:54;99106.19;;;10.08
60615;BMP280;46444;45.590;5.284;2023-04-03T09:47:27;99105.22;;;10.21
60615;BMP280;46444;45.590;5.284;2023-04-03T09:52:37;99091.00;;;10.09
60615;BMP280;46444;45.590;5.284;2023-04-03T09:55:18;99094.81;;;9.95
60615;BMP280;46444;45.590;5.284;2023-04-03T09:57:45;99083.22;;;10.19
60615;BMP280;46444;45.590;5.284;2023-04-03T10:00:26;99086.19;;;10.29
60615;BMP280;46444;45.590;5.284;2023-04-03T10:02:56;99079.44;;;10.26
60615;BMP280;46444;45.590;5.284;2023-04-03T10:05:39;99087.16;;;10.16
60615;BMP280;46444;45.590;5.284;2023-04-03T10:10:44;99086.22;;;10.11
60615;BMP280;46444;45.590;5.284;2023-04-03T10:13:12;99077.41;;;10.40
60615;BMP280;46444;45.590;5.284;2023-04-03T10:15:46;99079.47;;;10.38
60615;BMP280;46444;45.590;5.284;2023-04-03T10:21:12;99066.09;;;10.26
60615;BMP280;46444;45.590;5.284;2023-04-03T10:23:46;99073.31;;;10.08
60615;BMP280;46444;45.590;5.284;2023-04-03T10:34:25;99065.56;;;10.06
60615;BMP280;46444;45.590;5.284;2023-04-03T10:36:58;99061.81;;;10.37
60615;BMP280;46444;45.590;5.284;2023-04-03T10:42:32;99067.16;;;10.37
60615;BMP280;46444;45.590;5.284;2023-04-03T10:45:19;99062.97;;;10.29
60615;BMP280;46444;45.590;5.284;2023-04-03T10:47:55;99060.72;;;10.15
60615;BMP280;46444;45.590;5.284;2023-04-03T10:50:48;99064.34;;;10.32
60615;BMP280;46444;45.590;5.284;2023-04-03T10:58:45;99074.50;;;10.12
60615;BMP280;46444;45.590;5.284;2023-04-03T11:01:16;99058.03;;;10.15
60615;BMP280;46444;45.590;5.284;2023-04-03T11:03:47;99059.31;;;10.12
60615;BMP280;46444;45.590;5.284;2023-04-03T11:06:15;99071.41;;;9.97
60615;BMP280;46444;45.590;5.284;2023-04-03T11:08:48;99056.66;;;10.24
60615;BMP280;46444;45.590;5.284;2023-04-03T11:11:19;99057.50;;;10.36
60615;BMP280;46444;45.590;5.284;2023-04-03T11:13:54;99053.56;;;10.27
60615;BMP280;46444;45.590;5.284;2023-04-03T11:16:24;99054.47;;;10.21
60615;BMP280;46444;45.590;5.284;2023-04-03T11:21:38;99051.97;;;10.08
60615;BMP280;46444;45.590;5.284;2023-04-03T11:24:05;99045.47;;;10.04
60615;BMP280;46444;45.590;5.284;2023-04-03T11:26:40;99048.38;;;10.14
60615;BMP280;46444;45.590;5.284;2023-04-03T11:29:10;99049.91;;;10.10
60615;BMP280;46444;45.590;5.284;2023-04-03T11:31:49;99059.97;;;9.90
60615;BMP280;46444;45.590;5.284;2023-04-03T11:37:00;99045.72;;;10.14
60615;BMP280;46444;45.590;5.284;2023-04-03T11:39:34;99047.16;;;10.28
60615;BMP280;46444;45.590;5.284;2023-04-03T11:42:15;99032.75;;;9.99
60615;BMP280;46444;45.590;5.284;2023-04-03T11:44:41;99028.41;;;10.16
60615;BMP280;46444;45.590;5.284;2023-04-03T11:47:10;99032.97;;;10.16
60615;BMP280;46444;45.590;5.284;2023-04-03T11:50:03;99028.34;;;10.23
60615;BMP280;46444;45.590;5.284;2023-04-03T11:58:02;99026.72;;;9.74
60615;BMP280;46444;45.590;5.284;2023-04-03T12:16:02;99024.00;;;10.10
60615;BMP280;46444;45.590;5.284;2023-04-03T12:18:40;99017.09;;;10.03
60615;BMP280;46444;45.590;5.284;2023-04-03T12:21:06;99007.69;;;10.00
60615;BMP280;46444;45.590;5.284;2023-04-03T12:23:32;99010.88;;;10.09
60615;BMP280;46444;45.590;5.284;2023-04-03T12:28:47;99007.78;;;9.94
60615;BMP280;46444;45.590;5.284;2023-04-03T12:31:14;99003.47;;;10.11
60615;BMP280;46444;45.590;5.284;2023-04-03T12:34:09;99008.50;;;10.01
60615;BMP280;46444;45.590;5.284;2023-04-03T12:36:50;98989.13;;;10.05
60615;BMP280;46444;45.590;5.284;2023-04-03T12:47:29;99005.56;;;9.91
60615;BMP280;46444;45.590;5.284;2023-04-03T12:49:59;98995.19;;;9.83
60615;BMP280;46444;45.590;5.284;2023-04-03T12:52:37;98996.94;;;9.77
60615;BMP280;46444;45.590;5.284;2023-04-03T12:55:19;98993.50;;;9.88
60615;BMP280;46444;45.590;5.284;2023-04-03T12:57:45;98990.13;;;9.93
60615;BMP280;46444;45.590;5.284;2023-04-03T13:00:22;98992.59;;;9.94
60615;BMP280;46444;45.590;5.284;2023-04-03T13:02:48;98974.69;;;9.83
60615;BMP280;46444;45.590;5.284;2023-04-03T13:05:17;98981.41;;;9.86
60615;BMP280;46444;45.590;5.284;2023-04-03T13:07:43;98984.66;;;9.88
60615;BMP280;46444;45.590;5.284;2023-04-03T13:10:17;98972.75;;;10.02
60615;BMP280;46444;45.590;5.284;2023-04-03T13:12:52;98964.16;;;10.00
60615;BMP280;46444;45.590;5.284;2023-04-03T13:17:49;98962.81;;;10.09
60615;BMP280;46444;45.590;5.284;2023-04-03T13:20:28;98950.06;;;10.11
60615;BMP280;46444;45.590;5.284;2023-04-03T13:23:07;98934.06;;;10.34
60615;BMP280;46444;45.590;5.284;2023-04-03T13:25:36;98948.34;;;10.39
60615;BMP280;46444;45.590;5.284;2023-04-03T13:28:05;98953.34;;;10.36
60615;BMP280;46444;45.590;5.284;2023-04-03T13:30:34;98944.16;;;10.43
60615;BMP280;46444;45.590;5.284;2023-04-03T13:33:03;98952.44;;;10.53
60615;BMP280;46444;45.590;5.284;2023-04-03T13:35:32;98943.94;;;10.56
60615;BMP280;46444;45.590;5.284;2023-04-03T13:38:01;98948.66;;;11.12
60615;BMP280;46444;45.590;5.284;2023-04-03T13:40:27;98945.03;;;11.06
60615;BMP280;46444;45.590;5.284;2023-04-03T13:43:16;98942.88;;;10.92
60615;BMP280;46444;45.590;5.284;2023-04-03T13:45:55;98941.34;;;10.96
60615;BMP280;46444;45.590;5.284;2023-04-03T13:48:21;98939.50;;;10.85
60615;BMP280;46444;45.590;5.284;2023-04-03T13:51:00;98935.28;;;11.12
60615;BMP280;46444;45.590;5.284;2023-04-03T13:53:26;98934.03;;;10.91
60615;BMP280;46444;45.590;5.284;2023-04-03T13:55:54;98935.50;;;11.22
60615;BMP280;46444;45.590;5.284;2023-04-03T13:58:29;98927.09;;;11.18
60615;BMP280;46444;45.590;5.284;2023-04-03T14:01:09;98910.34;;;11.23
60615;BMP280;46444;45.590;5.284;2023-04-03T14:06:18;98914.94;;;11.11
60615;BMP280;46444;45.590;5.284;2023-04-03T14:08:45;98907.69;;;11.11
60615;BMP280;46444;45.590;5.284;2023-04-03T14:11:15;98913.44;;;11.03
60615;BMP280;46444;45.590;5.284;2023-04-03T14:13:41;98918.41;;;11.11
60615;BMP280;46444;45.590;5.284;2023-04-03T14:16:07;98913.31;;;11.10
60615;BMP280;46444;45.590;5.284;2023-04-03T14:18:32;98898.41;;;11.14
60615;BMP280;46444;45.590;5.284;2023-04-03T14:20:57;98898.03;;;11.22
60615;BMP280;46444;45.590;5.284;2023-04-03T14:23:23;98889.41;;;11.20
60615;BMP280;46444;45.590;5.284;2023-04-03T14:25:48;98885.06;;;11.30
60615;BMP280;46444;45.590;5.284;2023-04-03T14:28:18;98882.06;;;11.27
60615;BMP280;46444;45.590;5.284;2023-04-03T14:30:44;98882.88;;;11.27
60615;BMP280;46444;45.590;5.284;2023-04-03T14:33:14;98883.63;;;11.23
60615;BMP280;46444;45.590;5.284;2023-04-03T14:35:40;98875.00;;;11.49
60615;BMP280;46444;45.590;5.284;2023-04-03T14:38:21;98888.47;;;11.54
60615;BMP280;46444;45.590;5.284;2023-04-03T14:40:47;98880.22;;;11.55
60615;BMP280;46444;45.590;5.284;2023-04-03T14:43:13;98869.69;;;11.65
60615;BMP280;46444;45.590;5.284;2023-04-03T14:45:38;98864.63;;;11.64
60615;BMP280;46444;45.590;5.284;2023-04-03T14:48:06;98876.84;;;11.60
60615;BMP280;46444;45.590;5.284;2023-04-03T14:50:35;98882.84;;;11.67
60615;BMP280;46444;45.590;5.284;2023-04-03T14:53:00;98861.09;;;11.35
60615;BMP280;46444;45.590;5.284;2023-04-03T14:55:26;98867.03;;;11.37
60615;BMP280;46444;45.590;5.284;2023-04-03T14:57:53;98851.50;;;11.23
60615;BMP280;46444;45.590;5.284;2023-04-03T15:00:20;98855.88;;;11.01
60615;BMP280;46444;45.590;5.284;2023-04-03T15:02:46;98859.34;;;11.13
60615;BMP280;46444;45.590;5.284;2023-04-03T15:05:13;98853.66;;;11.37
60615;BMP280;46444;45.590;5.284;2023-04-03T15:07:43;98857.09;;;11.49
60615;BMP280;46444;45.590;5.284;2023-04-03T15:10:24;98850.78;;;11.55
60615;BMP280;46444;45.590;5.284;2023-04-03T15:12:50;98857.88;;;11.50
60615;BMP280;46444;45.590;5.284;2023-04-03T15:15:17;98847.78;;;11.52
60615;BMP280;46444;45.590;5.284;2023-04-03T15:17:45;98861.72;;;11.54
60615;BMP280;46444;45.590;5.284;2023-04-03T15:20:16;98859.44;;;11.46
60615;BMP280;46444;45.590;5.284;2023-04-03T15:22:42;98854.56;;;11.43
60615;BMP280;46444;45.590;5.284;2023-04-03T15:25:08;98856.50;;;11.47
60615;BMP280;46444;45.590;5.284;2023-04-03T15:27:34;98848.22;;;11.60
60615;BMP280;46444;45.590;5.284;2023-04-03T15:29:59;98849.13;;;11.66
60615;BMP280;46444;45.590;5.284;2023-04-03T15:32:25;98851.47;;;11.62
60615;BMP280;46444;45.590;5.284;2023-04-03T15:34:50;98848.75;;;11.46
60615;BMP280;46444;45.590;5.284;2023-04-03T15:37:15;98842.88;;;11.49
60615;BMP280;46444;45.590;5.284;2023-04-03T15:39:41;98853.06;;;11.35
60615;BMP280;46444;45.590;5.284;2023-04-03T15:42:06;98846.63;;;11.48
60615;BMP280;46444;45.590;5.284;2023-04-03T15:44:35;98839.25;;;11.55
60615;BMP280;46444;45.590;5.284;2023-04-03T15:47:01;98843.38;;;11.46
60615;BMP280;46444;45.590;5.284;2023-04-03T15:49:26;98844.34;;;11.40
60615;BMP280;46444;45.590;5.284;2023-04-03T15:51:52;98839.66;;;11.47
60615;BMP280;46444;45.590;5.284;2023-04-03T15:54:18;98839.97;;;11.50
60615;BMP280;46444;45.590;5.284;2023-04-03T15:56:43;98837.06;;;11.52
60615;BMP280;46444;45.590;5.284;2023-04-03T15:59:09;98840.31;;;11.54
60615;BMP280;46444;45.590;5.284;2023-04-03T16:01:36;98844.59;;;11.55
60615;BMP280;46444;45.590;5.284;2023-04-03T16:04:01;98839.75;;;11.24
60615;BMP280;46444;45.590;5.284;2023-04-03T16:06:27;98841.59;;;11.23
60615;BMP280;46444;45.590;5.284;2023-04-03T16:08:54;98835.69;;;11.21
60615;BMP280;46444;45.590;5.284;2023-04-03T16:11:23;98827.78;;;11.43
60615;BMP280;46444;45.590;5.284;2023-04-03T16:13:48;98835.06;;;11.31
60615;BMP280;46444;45.590;5.284;2023-04-03T16:16:14;98830.44;;;11.26
60615;BMP280;46444;45.590;5.284;2023-04-03T16:18:39;98839.66;;;11.19
60615;BMP280;46444;45.590;5.284;2023-04-03T16:21:06;98839.66;;;11.19
60615;BMP280;46444;45.590;5.284;2023-04-03T16:23:31;98843.66;;;11.33
60615;BMP280;46444;45.590;5.284;2023-04-03T16:25:57;98842.34;;;11.19
60615;BMP280;46444;45.590;5.284;2023-04-03T16:28:22;98840.63;;;11.13
60615;BMP280;46444;45.590;5.284;2023-04-03T16:30:47;98838.16;;;11.11
60615;BMP280;46444;45.590;5.284;2023-04-03T16:33:14;98841.16;;;11.26
60615;BMP280;46444;45.590;5.284;2023-04-03T16:35:40;98841.28;;;11.20
60615;BMP280;46444;45.590;5.284;2023-04-03T16:38:07;98843.28;;;11.13
60615;BMP280;46444;45.590;5.284;2023-04-03T16:40:32;98838.63;;;10.92
60615;BMP280;46444;45.590;5.284;2023-04-03T16:42:59;98818.56;;;11.06
60615;BMP280;46444;45.590;5.284;2023-04-03T16:45:24;98842.00;;;11.15
60615;BMP280;46444;45.590;5.284;2023-04-03T16:47:50;98831.75;;;11.24
60615;BMP280;46444;45.590;5.284;2023-04-03T16:50:15;98840.19;;;11.04
60615;BMP280;46444;45.590;5.284;2023-04-03T16:52:41;98840.91;;;11.00
60615;BMP280;46444;45.590;5.284;2023-04-03T16:55:06;98831.09;;;11.05
60615;BMP280;46444;45.590;5.284;2023-04-03T16:57:32;98826.91;;;11.09
60615;BMP280;46444;45.590;5.284;2023-04-03T16:59:57;98826.19;;;11.42
60615;BMP280;46444;45.590;5.284;2023-04-03T17:02:23;98822.13;;;11.39
60615;BMP280;46444;45.590;5.284;2023-04-03T17:04:52;98828.94;;;11.47
60615;BMP280;46444;45.590;5.284;2023-04-03T17:07:23;98830.59;;;11.36
60615;BMP280;46444;45.590;5.284;2023-04-03T17:09:48;98837.53;;;11.49
60615;BMP280;46444;45.590;5.284;2023-04-03T17:12:14;98832.84;;;11.56
60615;BMP280;46444;45.590;5.284;2023-04-03T17:14:39;98827.13;;;11.64
60615;BMP280;46444;45.590;5.284;2023-04-03T17:17:05;98830.28;;;11.61
60615;BMP280;46444;45.590;5.284;2023-04-03T17:19:31;98829.50;;;11.60